Terminal Aerodrome Forecast
Issued by NWS Bismarck, ND

Home | Current Version | Previous Version | Graphics & Text | Print | Product List | Glossary On
Versions: 1 2 3 4 5 6 7 8 9 10 11 12 13 14 15 16 17 18 19 20 21 22 23
000
FTUS43 KBIS 191200 AAA
TAFISN
TAF AMD
KISN 191243Z 1913/2012 20003KT 1/2SM FZFG OVC002
     FM191500 21005KT 4SM BR SCT005 BKN050
     FM191700 25005KT P6SM SCT050
     FM200100 17003KT P6SM SCT100=

USA.gov is the U.S. government's official web portal to all federal, state and local government web resources and services.